云阁雅集——专业美图社区,高速快捷下载

 找回密码
 立即注册
收藏本版 (3)

【Graphis视频】 今日: 0|主题: 165|排名: 91 

作者 回复/查看 最后发表
公告 公告: VIP会员必看!VIP会员必看!VIP会员必看!重要的事情说三遍!! admin 2016-7-2    
全局置顶 隐藏置顶帖 VIP会员必看!VIP会员必看!VIP会员必看!重要的事情说三遍!! attach_img digest  ...2345 admin 2016-7-2 16:04 4272667 sfxw 2019-4-28 22:38
全局置顶 隐藏置顶帖 云阁雅集整站资源下载索引 digest  ...23 admin 2015-7-8 22:01 24128979 syk201314 2018-11-12 21:17
全局置顶 隐藏置顶帖 云阁雅集论坛发展更新计划公告 attach_img digest  ...23456..27 admin 2015-1-14 22:01 262263645 10441061037 2019-5-7 21:35
全局置顶 隐藏置顶帖 云阁雅集论坛邀请注册说明 attachment digest  ...23456..11 admin 2013-8-25 22:11 101132598 kaka8249 2019-4-9 04:05
      
[Graphis] 2018.06.22 Limited Edition Mana Sakura 紗倉まな [20P1V-261MB] attach_img heatlevel admin 2018-7-21 21:00 71901 yusuke01 2019-5-7 14:47
[Graphis] 2018.03.23 Limited Edition Suzu Harumiya 春宮すず [20P1V253MB] attach_img heatlevel admin 2018-4-21 20:10 81657 拉克丝 2019-4-28 06:19
[Graphis] 2018.03.09 Limited Edition Arina Hashimoto 橋本ありな [20P1V-257MB] attach_img heatlevel  ...2 admin 2018-4-21 20:09 101276 拉克丝 2019-4-28 06:08
[Graphis] 2018.03.09 Limited Edition Arina Hashimoto 橋本ありな [20P1V-257MB] attach_img heatlevel admin 2018-4-9 13:53 91028 jay180036 2019-3-23 20:56
[Graphis] 2018.02.09 Limited Edition Kirari Sena 瀬名きらり [20P1V-257MB] attach_img heatlevel admin 2018-4-9 13:52 9795 拉克丝 2019-4-28 06:20
[Graphis] 2018.01.01 Limited Edition 竹田ゆめ(DVD)Yume Takeda [20P +1MOV3... attach_img heatlevel admin 2018-4-8 14:21 4551 ragingminotuar 2019-1-5 17:31
[Graphis] 2018.01.01 Limited Edition 愛音まりあ(DVD)Maria Aine [20P +1MOV... attach_img heatlevel admin 2018-4-8 14:21 7724 terranfreedom 2019-4-25 00:02
[Graphis] 2017.12.22 Limited Edition Xmas Special 2017 鈴村あいり Airi Suz... attach_img heatlevel  ...2 admin 2018-2-3 21:57 111259 baron 2019-2-1 13:39
[Graphis] 2017.12.06 Limited Edition 長谷川るい(DVD)Rui Hasegawa [20P +1M... attach_img heatlevel admin 2018-2-3 20:40 7866 hiworld66 2019-3-29 11:22
[Graphis] 2017.11.30 Limited Edition Shiori Kamisaki 神咲詩織 (DVD) [20P +1M... attachment heatlevel admin 2018-1-28 15:05 91169 拉克丝 2019-4-28 06:23
[Graphis] 2017.11.03 Limited Edition Makoto Toda 戸田真琴 (DVD) [20P+1MOV250MB] attach_img heatlevel admin 2018-1-26 10:06 7776 hiworld66 2019-4-1 11:34
[Graphis] 2017.09.12 Limited Edition Rin Asuka 飛鳥りん [20P+1V-250MB] attach_img heatlevel admin 2018-1-16 13:37 6783 hiworld66 2019-3-13 09:41
[Graphis] 2017.10.11 Limited Edition 桐谷まつり(DVD) Matsuri Kiritani [20P+... attach_img heatlevel admin 2017-12-3 15:25 31076 koko2231133 2019-2-13 21:12
[Graphis] 2017.09.12 Limited Edition 飛鳥りん(DVD)Rin Asuka [201V-228MB] attach_img heatlevel admin 2017-11-28 16:20 71305 hiworld66 2019-3-13 09:43
[Graphis] 2017.10.04 Limited Edition Tsumugi Akari 明里つむぎ [20P1V-247MB] attach_img heatlevel admin 2017-10-22 22:44 81385 q4173238 2019-4-8 19:52
[Graphis] 2017.09.10 SUMMER SPECIAL2017 市川まさみ Masami Ichikawa [120P2V651MB] attach_img heatlevel admin 2017-10-18 23:04 9989 shingujisakura 2019-5-1 09:32
[Graphis] 2017.08.25 Limited Edition 凰かなめ Kaname Ootori [20P1V251MB] attach_img heatlevel admin 2017-9-16 21:10 71087 koko2231133 2019-2-13 21:13
[Graphis] 2017.07.14 Suzu Harumiya 春宮 すず『 Spring Breeze 』MOVIE 01 [382MB] attach_img heatlevel admin 2017-7-16 23:00 21409 koko2231133 2019-2-10 17:27
[Graphis] 2017.07.12 Nana Fukada 深田 ナナ『 Natural-Busty-Girl! 』MOVIE 01 [... attach_img heatlevel admin 2017-7-16 23:00 31327 liaom6609x 2018-7-13 00:55
[Graphis] 2017.07.10 Momo Sakura 桜空もも『 first gravure 』MOVIE 03 [294MB] attach_img heatlevel admin 2017-7-16 22:58 61394 hiworld66 2019-3-13 10:10
[Graphis] 2017.07.03 Momo Sakura 桜空もも『 first gravure MOVIE 02 [322MB] attach_img heatlevel admin 2017-7-16 22:57 31395 koko2231133 2019-2-13 21:15
[Graphis] 2017.06.30 Nanami Kawakami 川上 奈々美『 Limited Edition 』MOVIE [2... attach_img heatlevel admin 2017-7-5 03:12 1888 windowslive 2017-12-20 22:11
[Graphis] 2017.06.30 Iori Kogawa 古川 いおり『 Limited Edition 』MOVIE [222MB] attach_img heatlevel admin 2017-7-5 03:10 61192 2101405003 2018-12-20 22:00
[Graphis] 2017.06.26 Momo Sakura 桜空もも『 first gravure 』MOVIE 01 [499MB] attach_img heatlevel admin 2017-7-5 03:09 51409 hiworld66 2019-4-2 23:08
[Graphis] 2017.06.19 Mitsuha Kikukawa 菊川 みつ葉『 Fresh seedlings MOVIE 03... attach_img heatlevel admin 2017-6-27 22:32 1781 落大雨 2018-1-20 01:27
[Graphis] 2017.06.16 Tsumugi Akari 明里つむぎ『 first gravure 』MOVIE 03 [338MB] attach_img heatlevel admin 2017-6-21 01:34 01027 admin 2017-6-21 01:34
[Graphis] 2017.06.14 Mitsuha Kikukawa 菊川 みつ葉『 Fresh seedlings 』MOVIE 0... attach_img heatlevel admin 2017-6-21 01:33 1738 tnttpg 2017-6-22 16:30
[Graphis] 2017.06.12 Kaname Ootori 凰 かなめ『 lovely doll 』MOVIE 03 [239MB] attach_img heatlevel admin 2017-6-21 01:32 1615 linchunlcy 2018-6-29 23:26
[Graphis] 2017.06.07 Kaname Ootori 凰 かなめ『 lovely doll 』MOVIE 02 [392MB] attach_img heatlevel admin 2017-6-14 15:03 3656 2101405003 2018-11-9 23:32
[Graphis] 2017.06.05 Rin Asuka 飛鳥 りん『 Sunny Place 』MOVIE 03 [375MB] attach_img heatlevel admin 2017-6-14 15:01 5950 terranfreedom 2019-3-28 00:19
[Graphis] 2017.06.02 Tsumugi Akari 明里つむぎ『 first gravure 』MOVIE 02 [431MB] attach_img heatlevel admin 2017-6-5 23:22 81178 q4173238 2019-4-8 19:56
[Graphis] 2017.05.31 ANRI - GW SPECIAL『 Happy-Go-Lucky 』MOVIE 03 [248MB] attach_img heatlevel admin 2017-6-5 23:15 3559 q4173238 2019-4-8 20:08
[Graphis] 2017.05.29 Kaname Ootori 凰 かなめ『 lovely doll 』MOVIE 01 [342MB] attach_img heatlevel admin 2017-6-5 23:14 3439 baron 2019-2-1 13:57
[Graphis] 2017.05.26 Rin Asuka 飛鳥 りん『 Sunny Place 』MOVIE 02 [360MB] attach_img heatlevel admin 2017-5-31 21:49 3695 hiworld66 2019-3-13 09:54
[Graphis] 2017.05.26 Mana Sakura 紗倉 まな『 Limited Edition 』MOVIE [220MB] attach_img heatlevel admin 2017-5-31 21:46 4662 scholes0328 2019-3-10 13:26
[Graphis] 2017.05.26 Airi Suzumura 鈴村 あいり『 Limited Edition 』MOVIE [221MB] attach_img heatlevel admin 2017-5-31 21:39 2858 scholes0328 2019-3-10 13:27
[Graphis] 2017.05.22 Tsumugi Akari 明里つむぎ『 first gravure 』MOVIE 01 [378MB] attach_img heatlevel admin 2017-5-31 21:34 6853 拉克丝 2019-4-28 06:13
[Graphis] Julia ジュリア 『 De Deesse! 』 MOVIE 03 [296MB] attachment heatlevel admin 2017-5-27 18:06 81200 jx911 2019-4-22 09:46
[Graphis] Julia ジュリア 『 De Deesse! 』 MOVIE 02 [303MB] attachment heatlevel admin 2017-5-27 18:05 7856 hyf402 2019-4-26 17:06
[Graphis] Julia ジュリア 『 De Deesse! 』 MOVIE 01 [250MB] attachment heatlevel admin 2017-5-27 18:05 91195 hiworld66 2019-4-1 11:38
下一页 »

快速发帖

还可输入 80 个字符
您需要登录后才可以发帖 登录 | 立即注册

本版积分规则

QQ|Archiver|手机版|云阁雅集 |网站地图

GMT+8, 2019-5-22 07:15 , Processed in 0.050472 second(s), 12 queries .

Powered by Discuz! X3.3

© 2001-2013 Comsenz Inc. Templated By 【云阁雅集】

返回顶部 返回版块